sensor_id;sensor_type;location;lat;lon;timestamp;temperature;humidity
66013;DHT22;52783;50.502;8.190;2023-05-07T00:00:21;14.60;99.90
66013;DHT22;52783;50.502;8.190;2023-05-07T00:02:47;14.60;99.90
66013;DHT22;52783;50.502;8.190;2023-05-07T00:05:13;14.60;99.90
66013;DHT22;52783;50.502;8.190;2023-05-07T00:07:39;14.50;99.90
66013;DHT22;52783;50.502;8.190;2023-05-07T00:10:06;14.60;99.90
66013;DHT22;52783;50.502;8.190;2023-05-07T00:12:33;14.60;99.90
66013;DHT22;52783;50.502;8.190;2023-05-07T00:15:05;14.60;99.90
66013;DHT22;52783;50.502;8.190;2023-05-07T00:17:32;14.60;99.90
66013;DHT22;52783;50.502;8.190;2023-05-07T00:19:58;14.60;99.90
66013;DHT22;52783;50.502;8.190;2023-05-07T00:22:23;14.60;99.90
66013;DHT22;52783;50.502;8.190;2023-05-07T00:24:49;14.60;99.90
66013;DHT22;52783;50.502;8.190;2023-05-07T00:27:14;14.50;99.90
66013;DHT22;52783;50.502;8.190;2023-05-07T00:29:40;14.60;99.90
66013;DHT22;52783;50.502;8.190;2023-05-07T00:32:05;14.50;99.90
66013;DHT22;52783;50.502;8.190;2023-05-07T00:34:31;14.50;99.90
66013;DHT22;52783;50.502;8.190;2023-05-07T00:36:56;14.50;99.90
66013;DHT22;52783;50.502;8.190;2023-05-07T00:39:22;14.50;99.90
66013;DHT22;52783;50.502;8.190;2023-05-07T00:41:48;14.50;99.90
66013;DHT22;52783;50.502;8.190;2023-05-07T00:44:13;14.50;99.90
66013;DHT22;52783;50.502;8.190;2023-05-07T00:46:40;14.40;99.90
66013;DHT22;52783;50.502;8.190;2023-05-07T00:49:06;14.40;99.90
66013;DHT22;52783;50.502;8.190;2023-05-07T00:51:32;14.40;99.90
66013;DHT22;52783;50.502;8.190;2023-05-07T00:54:00;14.40;99.90
66013;DHT22;52783;50.502;8.190;2023-05-07T00:56:26;14.40;99.90
66013;DHT22;52783;50.502;8.190;2023-05-07T00:58:52;14.50;99.90
66013;DHT22;52783;50.502;8.190;2023-05-07T01:01:18;14.50;99.90
66013;DHT22;52783;50.502;8.190;2023-05-07T01:03:44;14.50;99.90
66013;DHT22;52783;50.502;8.190;2023-05-07T01:06:10;14.40;99.90
66013;DHT22;52783;50.502;8.190;2023-05-07T01:08:41;14.30;99.90
66013;DHT22;52783;50.502;8.190;2023-05-07T01:11:08;14.40;99.90
66013;DHT22;52783;50.502;8.190;2023-05-07T01:13:35;14.40;99.90
66013;DHT22;52783;50.502;8.190;2023-05-07T01:16:02;14.30;99.90
66013;DHT22;52783;50.502;8.190;2023-05-07T01:18:28;14.20;99.90
66013;DHT22;52783;50.502;8.190;2023-05-07T01:20:57;14.20;99.90
66013;DHT22;52783;50.502;8.190;2023-05-07T01:23:23;14.20;99.90
66013;DHT22;52783;50.502;8.190;2023-05-07T01:25:53;14.20;99.90
66013;DHT22;52783;50.502;8.190;2023-05-07T01:28:19;14.30;99.90
66013;DHT22;52783;50.502;8.190;2023-05-07T01:30:49;14.40;99.90
66013;DHT22;52783;50.502;8.190;2023-05-07T01:33:19;14.40;99.90
66013;DHT22;52783;50.502;8.190;2023-05-07T01:35:49;14.40;99.90
66013;DHT22;52783;50.502;8.190;2023-05-07T01:38:16;14.40;99.90
66013;DHT22;52783;50.502;8.190;2023-05-07T01:40:42;14.40;99.90
66013;DHT22;52783;50.502;8.190;2023-05-07T01:43:09;14.40;99.90
66013;DHT22;52783;50.502;8.190;2023-05-07T01:45:35;14.40;99.90
66013;DHT22;52783;50.502;8.190;2023-05-07T01:48:02;14.40;99.90
66013;DHT22;52783;50.502;8.190;2023-05-07T01:50:28;14.40;99.90
66013;DHT22;52783;50.502;8.190;2023-05-07T01:52:55;14.30;99.90
66013;DHT22;52783;50.502;8.190;2023-05-07T01:55:21;14.20;99.90
66013;DHT22;52783;50.502;8.190;2023-05-07T01:57:47;14.10;99.90
66013;DHT22;52783;50.502;8.190;2023-05-07T02:00:13;13.90;99.90
66013;DHT22;52783;50.502;8.190;2023-05-07T02:02:38;13.90;99.90
66013;DHT22;52783;50.502;8.190;2023-05-07T02:05:04;13.90;99.90
66013;DHT22;52783;50.502;8.190;2023-05-07T02:07:30;13.90;99.90
66013;DHT22;52783;50.502;8.190;2023-05-07T02:09:56;13.90;99.90
66013;DHT22;52783;50.502;8.190;2023-05-07T02:12:22;13.80;99.90
66013;DHT22;52783;50.502;8.190;2023-05-07T02:14:48;13.80;99.90
66013;DHT22;52783;50.502;8.190;2023-05-07T02:17:13;13.80;99.90
66013;DHT22;52783;50.502;8.190;2023-05-07T02:19:39;13.80;99.90
66013;DHT22;52783;50.502;8.190;2023-05-07T02:22:05;13.80;99.90
66013;DHT22;52783;50.502;8.190;2023-05-07T02:24:30;13.70;99.90
66013;DHT22;52783;50.502;8.190;2023-05-07T02:26:56;13.60;99.90
66013;DHT22;52783;50.502;8.190;2023-05-07T02:29:21;13.40;99.90
66013;DHT22;52783;50.502;8.190;2023-05-07T02:31:47;13.40;99.90
66013;DHT22;52783;50.502;8.190;2023-05-07T02:34:16;13.40;99.90
66013;DHT22;52783;50.502;8.190;2023-05-07T02:36:42;13.30;99.90
66013;DHT22;52783;50.502;8.190;2023-05-07T02:39:07;13.30;99.90
66013;DHT22;52783;50.502;8.190;2023-05-07T02:41:33;13.30;99.90
66013;DHT22;52783;50.502;8.190;2023-05-07T02:43:59;13.30;99.90
66013;DHT22;52783;50.502;8.190;2023-05-07T02:46:24;13.30;99.90
66013;DHT22;52783;50.502;8.190;2023-05-07T02:48:50;13.30;99.90
66013;DHT22;52783;50.502;8.190;2023-05-07T02:51:20;13.30;99.90
66013;DHT22;52783;50.502;8.190;2023-05-07T02:53:46;13.30;99.90
66013;DHT22;52783;50.502;8.190;2023-05-07T02:56:12;13.30;99.90
66013;DHT22;52783;50.502;8.190;2023-05-07T02:58:37;13.30;99.90
66013;DHT22;52783;50.502;8.190;2023-05-07T03:01:05;13.30;99.90
66013;DHT22;52783;50.502;8.190;2023-05-07T03:03:30;13.40;99.90
66013;DHT22;52783;50.502;8.190;2023-05-07T03:05:56;13.40;99.90
66013;DHT22;52783;50.502;8.190;2023-05-07T03:08:22;13.40;99.90
66013;DHT22;52783;50.502;8.190;2023-05-07T03:10:48;13.40;99.90
66013;DHT22;52783;50.502;8.190;2023-05-07T03:13:13;13.40;99.90
66013;DHT22;52783;50.502;8.190;2023-05-07T03:15:39;13.40;99.90
66013;DHT22;52783;50.502;8.190;2023-05-07T03:18:05;13.40;99.90
66013;DHT22;52783;50.502;8.190;2023-05-07T03:20:30;13.40;99.90
66013;DHT22;52783;50.502;8.190;2023-05-07T03:22:56;13.40;99.90
66013;DHT22;52783;50.502;8.190;2023-05-07T03:25:21;13.40;99.90
66013;DHT22;52783;50.502;8.190;2023-05-07T03:27:47;13.50;99.90
66013;DHT22;52783;50.502;8.190;2023-05-07T03:30:13;13.40;99.90
66013;DHT22;52783;50.502;8.190;2023-05-07T03:32:38;13.40;99.90
66013;DHT22;52783;50.502;8.190;2023-05-07T03:35:04;13.40;99.90
66013;DHT22;52783;50.502;8.190;2023-05-07T03:37:30;13.40;99.90
66013;DHT22;52783;50.502;8.190;2023-05-07T03:39:55;13.40;99.90
66013;DHT22;52783;50.502;8.190;2023-05-07T03:42:21;13.40;99.90
66013;DHT22;52783;50.502;8.190;2023-05-07T03:44:46;13.40;99.90
66013;DHT22;52783;50.502;8.190;2023-05-07T03:47:12;13.40;99.90
66013;DHT22;52783;50.502;8.190;2023-05-07T03:49:39;13.40;99.90
66013;DHT22;52783;50.502;8.190;2023-05-07T03:52:05;13.40;99.90
66013;DHT22;52783;50.502;8.190;2023-05-07T03:54:31;13.40;99.90
66013;DHT22;52783;50.502;8.190;2023-05-07T03:56:57;13.50;99.90
66013;DHT22;52783;50.502;8.190;2023-05-07T03:59:22;13.50;99.90
66013;DHT22;52783;50.502;8.190;2023-05-07T04:01:48;13.50;99.90
66013;DHT22;52783;50.502;8.190;2023-05-07T04:04:16;13.50;99.90
66013;DHT22;52783;50.502;8.190;2023-05-07T04:06:42;13.50;99.90
66013;DHT22;52783;50.502;8.190;2023-05-07T04:09:08;13.50;99.90
66013;DHT22;52783;50.502;8.190;2023-05-07T04:11:35;13.50;99.90
66013;DHT22;52783;50.502;8.190;2023-05-07T04:14:00;13.50;99.90
66013;DHT22;52783;50.502;8.190;2023-05-07T04:16:26;13.40;99.90
66013;DHT22;52783;50.502;8.190;2023-05-07T04:18:51;13.30;99.90
66013;DHT22;52783;50.502;8.190;2023-05-07T04:21:18;13.40;99.90
66013;DHT22;52783;50.502;8.190;2023-05-07T04:23:44;13.30;99.90
66013;DHT22;52783;50.502;8.190;2023-05-07T04:26:10;13.30;99.90
66013;DHT22;52783;50.502;8.190;2023-05-07T04:28:35;13.30;99.90
66013;DHT22;52783;50.502;8.190;2023-05-07T04:31:01;13.30;99.90
66013;DHT22;52783;50.502;8.190;2023-05-07T04:33:27;13.30;99.90
66013;DHT22;52783;50.502;8.190;2023-05-07T04:35:53;13.20;99.90
66013;DHT22;52783;50.502;8.190;2023-05-07T04:38:18;13.20;99.90
66013;DHT22;52783;50.502;8.190;2023-05-07T04:40:44;13.20;99.90
66013;DHT22;52783;50.502;8.190;2023-05-07T04:43:10;13.20;99.90
66013;DHT22;52783;50.502;8.190;2023-05-07T04:45:36;13.30;99.90
66013;DHT22;52783;50.502;8.190;2023-05-07T04:48:02;13.30;99.90
66013;DHT22;52783;50.502;8.190;2023-05-07T04:50:27;13.40;99.90
66013;DHT22;52783;50.502;8.190;2023-05-07T04:52:53;13.50;99.90
66013;DHT22;52783;50.502;8.190;2023-05-07T04:55:19;13.50;99.90
66013;DHT22;52783;50.502;8.190;2023-05-07T04:57:44;13.50;99.90
66013;DHT22;52783;50.502;8.190;2023-05-07T05:00:10;13.50;99.90
66013;DHT22;52783;50.502;8.190;2023-05-07T05:02:39;13.50;99.90
66013;DHT22;52783;50.502;8.190;2023-05-07T05:05:05;13.50;99.90
66013;DHT22;52783;50.502;8.190;2023-05-07T05:07:31;13.60;99.90
66013;DHT22;52783;50.502;8.190;2023-05-07T05:09:56;13.60;99.90
66013;DHT22;52783;50.502;8.190;2023-05-07T05:12:23;13.50;99.90
66013;DHT22;52783;50.502;8.190;2023-05-07T05:14:48;13.60;99.90
66013;DHT22;52783;50.502;8.190;2023-05-07T05:17:14;13.60;99.90
66013;DHT22;52783;50.502;8.190;2023-05-07T05:19:39;13.70;99.90
66013;DHT22;52783;50.502;8.190;2023-05-07T05:22:05;13.60;99.90
66013;DHT22;52783;50.502;8.190;2023-05-07T05:24:31;13.60;99.90
66013;DHT22;52783;50.502;8.190;2023-05-07T05:26:57;13.70;99.90
66013;DHT22;52783;50.502;8.190;2023-05-07T05:29:23;13.70;99.90
66013;DHT22;52783;50.502;8.190;2023-05-07T05:31:49;13.80;99.90
66013;DHT22;52783;50.502;8.190;2023-05-07T05:34:14;13.90;99.90
66013;DHT22;52783;50.502;8.190;2023-05-07T05:36:40;13.90;99.90
66013;DHT22;52783;50.502;8.190;2023-05-07T05:39:06;13.80;99.90
66013;DHT22;52783;50.502;8.190;2023-05-07T05:41:31;13.80;99.90
66013;DHT22;52783;50.502;8.190;2023-05-07T05:43:57;13.80;99.90
66013;DHT22;52783;50.502;8.190;2023-05-07T05:46:22;13.70;99.90
66013;DHT22;52783;50.502;8.190;2023-05-07T05:48:48;13.80;99.90
66013;DHT22;52783;50.502;8.190;2023-05-07T05:51:13;13.90;99.90
66013;DHT22;52783;50.502;8.190;2023-05-07T05:53:39;13.90;99.90
66013;DHT22;52783;50.502;8.190;2023-05-07T05:56:05;13.90;99.90
66013;DHT22;52783;50.502;8.190;2023-05-07T05:58:31;14.00;99.90
66013;DHT22;52783;50.502;8.190;2023-05-07T06:00:56;14.20;99.90
66013;DHT22;52783;50.502;8.190;2023-05-07T06:03:23;14.30;99.90
66013;DHT22;52783;50.502;8.190;2023-05-07T06:05:49;14.40;99.90
66013;DHT22;52783;50.502;8.190;2023-05-07T06:08:14;14.50;99.90
66013;DHT22;52783;50.502;8.190;2023-05-07T06:10:40;14.50;99.90
66013;DHT22;52783;50.502;8.190;2023-05-07T06:13:05;14.50;99.90
66013;DHT22;52783;50.502;8.190;2023-05-07T06:15:31;14.80;99.90
66013;DHT22;52783;50.502;8.190;2023-05-07T06:17:57;14.60;99.90
66013;DHT22;52783;50.502;8.190;2023-05-07T06:20:22;14.60;99.90
66013;DHT22;52783;50.502;8.190;2023-05-07T06:22:48;14.60;99.90
66013;DHT22;52783;50.502;8.190;2023-05-07T06:25:14;14.80;99.90
66013;DHT22;52783;50.502;8.190;2023-05-07T06:27:40;14.80;99.90
66013;DHT22;52783;50.502;8.190;2023-05-07T06:30:06;14.90;99.90
66013;DHT22;52783;50.502;8.190;2023-05-07T06:32:32;15.00;99.90
66013;DHT22;52783;50.502;8.190;2023-05-07T06:34:58;14.80;99.90
66013;DHT22;52783;50.502;8.190;2023-05-07T06:37:23;14.80;99.90
66013;DHT22;52783;50.502;8.190;2023-05-07T06:39:49;14.80;99.90
66013;DHT22;52783;50.502;8.190;2023-05-07T06:42:15;15.00;99.90
66013;DHT22;52783;50.502;8.190;2023-05-07T06:44:40;15.00;99.90
66013;DHT22;52783;50.502;8.190;2023-05-07T06:47:06;14.90;99.90
66013;DHT22;52783;50.502;8.190;2023-05-07T06:49:31;15.00;99.90
66013;DHT22;52783;50.502;8.190;2023-05-07T06:51:57;14.90;99.90
66013;DHT22;52783;50.502;8.190;2023-05-07T06:54:23;15.00;99.90
66013;DHT22;52783;50.502;8.190;2023-05-07T06:56:49;15.20;99.90
66013;DHT22;52783;50.502;8.190;2023-05-07T06:59:14;15.50;99.90
66013;DHT22;52783;50.502;8.190;2023-05-07T07:01:40;15.90;99.90
66013;DHT22;52783;50.502;8.190;2023-05-07T07:04:06;16.30;99.90
66013;DHT22;52783;50.502;8.190;2023-05-07T07:06:31;16.20;99.90
66013;DHT22;52783;50.502;8.190;2023-05-07T07:08:59;16.70;99.90
66013;DHT22;52783;50.502;8.190;2023-05-07T07:11:25;16.80;99.90
66013;DHT22;52783;50.502;8.190;2023-05-07T07:13:50;17.50;99.90
66013;DHT22;52783;50.502;8.190;2023-05-07T07:16:16;17.80;99.90
66013;DHT22;52783;50.502;8.190;2023-05-07T07:18:42;18.00;99.90
66013;DHT22;52783;50.502;8.190;2023-05-07T07:21:08;18.40;99.90
66013;DHT22;52783;50.502;8.190;2023-05-07T07:23:33;18.50;99.90
66013;DHT22;52783;50.502;8.190;2023-05-07T07:25:59;18.80;99.90
66013;DHT22;52783;50.502;8.190;2023-05-07T07:28:24;18.60;99.90
66013;DHT22;52783;50.502;8.190;2023-05-07T07:30:50;18.30;99.90
66013;DHT22;52783;50.502;8.190;2023-05-07T07:33:15;17.80;99.90
66013;DHT22;52783;50.502;8.190;2023-05-07T07:35:41;17.90;99.90
66013;DHT22;52783;50.502;8.190;2023-05-07T07:38:07;18.50;99.90
66013;DHT22;52783;50.502;8.190;2023-05-07T07:40:34;18.40;99.90
66013;DHT22;52783;50.502;8.190;2023-05-07T07:43:00;18.40;99.90
66013;DHT22;52783;50.502;8.190;2023-05-07T07:45:26;18.30;99.90
66013;DHT22;52783;50.502;8.190;2023-05-07T07:47:52;18.00;99.90
66013;DHT22;52783;50.502;8.190;2023-05-07T07:50:18;18.70;99.90
66013;DHT22;52783;50.502;8.190;2023-05-07T07:52:44;18.30;99.90
66013;DHT22;52783;50.502;8.190;2023-05-07T07:55:09;18.00;99.90
66013;DHT22;52783;50.502;8.190;2023-05-07T07:57:35;18.10;99.90
66013;DHT22;52783;50.502;8.190;2023-05-07T08:00:01;18.00;99.90
66013;DHT22;52783;50.502;8.190;2023-05-07T08:02:27;18.10;99.90
66013;DHT22;52783;50.502;8.190;2023-05-07T08:04:53;17.90;99.90
66013;DHT22;52783;50.502;8.190;2023-05-07T08:07:18;18.10;99.90
66013;DHT22;52783;50.502;8.190;2023-05-07T08:09:46;18.10;99.90
66013;DHT22;52783;50.502;8.190;2023-05-07T08:12:11;17.90;99.90
66013;DHT22;52783;50.502;8.190;2023-05-07T08:14:37;18.10;99.90
66013;DHT22;52783;50.502;8.190;2023-05-07T08:17:03;17.70;99.90
66013;DHT22;52783;50.502;8.190;2023-05-07T08:19:28;18.10;99.90
66013;DHT22;52783;50.502;8.190;2023-05-07T08:21:54;17.80;99.90
66013;DHT22;52783;50.502;8.190;2023-05-07T08:24:20;18.30;99.90
66013;DHT22;52783;50.502;8.190;2023-05-07T08:26:46;17.70;99.90
66013;DHT22;52783;50.502;8.190;2023-05-07T08:29:12;18.10;99.90
66013;DHT22;52783;50.502;8.190;2023-05-07T08:31:37;18.30;99.90
66013;DHT22;52783;50.502;8.190;2023-05-07T08:34:06;17.80;99.90
66013;DHT22;52783;50.502;8.190;2023-05-07T08:36:32;17.20;99.90
66013;DHT22;52783;50.502;8.190;2023-05-07T08:38:58;17.90;99.90
66013;DHT22;52783;50.502;8.190;2023-05-07T08:41:24;18.30;99.90
66013;DHT22;52783;50.502;8.190;2023-05-07T08:43:50;18.50;99.90
66013;DHT22;52783;50.502;8.190;2023-05-07T08:46:20;18.10;99.90
66013;DHT22;52783;50.502;8.190;2023-05-07T08:48:49;18.70;99.90
66013;DHT22;52783;50.502;8.190;2023-05-07T08:51:20;18.70;99.90
66013;DHT22;52783;50.502;8.190;2023-05-07T08:53:47;18.10;99.90
66013;DHT22;52783;50.502;8.190;2023-05-07T08:56:14;18.20;99.90
66013;DHT22;52783;50.502;8.190;2023-05-07T08:58:41;18.90;99.90
66013;DHT22;52783;50.502;8.190;2023-05-07T09:01:09;18.30;99.90
66013;DHT22;52783;50.502;8.190;2023-05-07T09:03:36;19.50;99.90
66013;DHT22;52783;50.502;8.190;2023-05-07T09:06:02;19.60;99.90
66013;DHT22;52783;50.502;8.190;2023-05-07T09:08:27;19.70;99.90
66013;DHT22;52783;50.502;8.190;2023-05-07T09:10:53;20.40;99.90
66013;DHT22;52783;50.502;8.190;2023-05-07T09:13:19;20.50;99.90
66013;DHT22;52783;50.502;8.190;2023-05-07T09:15:45;19.90;99.90
66013;DHT22;52783;50.502;8.190;2023-05-07T09:18:12;20.20;99.90
66013;DHT22;52783;50.502;8.190;2023-05-07T09:20:38;20.20;99.90
66013;DHT22;52783;50.502;8.190;2023-05-07T09:23:03;19.30;99.90
66013;DHT22;52783;50.502;8.190;2023-05-07T09:25:31;19.10;99.90
66013;DHT22;52783;50.502;8.190;2023-05-07T09:27:57;18.80;99.90
66013;DHT22;52783;50.502;8.190;2023-05-07T09:30:22;18.90;99.90
66013;DHT22;52783;50.502;8.190;2023-05-07T09:32:48;19.00;99.90
66013;DHT22;52783;50.502;8.190;2023-05-07T09:35:17;19.80;99.90
66013;DHT22;52783;50.502;8.190;2023-05-07T09:37:43;19.70;99.90
66013;DHT22;52783;50.502;8.190;2023-05-07T09:40:23;19.50;99.90
66013;DHT22;52783;50.502;8.190;2023-05-07T09:43:11;19.80;99.90
66013;DHT22;52783;50.502;8.190;2023-05-07T09:45:37;19.90;99.90
66013;DHT22;52783;50.502;8.190;2023-05-07T09:48:05;20.20;99.90
66013;DHT22;52783;50.502;8.190;2023-05-07T09:50:36;21.20;99.90
66013;DHT22;52783;50.502;8.190;2023-05-07T09:53:03;22.20;99.90
66013;DHT22;52783;50.502;8.190;2023-05-07T09:55:28;22.80;99.90
66013;DHT22;52783;50.502;8.190;2023-05-07T09:57:57;22.10;99.90
66013;DHT22;52783;50.502;8.190;2023-05-07T10:00:24;21.40;99.90
66013;DHT22;52783;50.502;8.190;2023-05-07T10:02:52;21.10;99.90
66013;DHT22;52783;50.502;8.190;2023-05-07T10:05:22;20.10;99.90
66013;DHT22;52783;50.502;8.190;2023-05-07T10:07:48;20.00;99.90
66013;DHT22;52783;50.502;8.190;2023-05-07T10:10:14;19.60;99.90
66013;DHT22;52783;50.502;8.190;2023-05-07T10:12:41;19.10;99.90
66013;DHT22;52783;50.502;8.190;2023-05-07T10:15:07;19.50;99.90
66013;DHT22;52783;50.502;8.190;2023-05-07T10:17:36;19.60;99.90
66013;DHT22;52783;50.502;8.190;2023-05-07T10:20:02;20.30;99.90
66013;DHT22;52783;50.502;8.190;2023-05-07T10:22:28;20.00;99.90
66013;DHT22;52783;50.502;8.190;2023-05-07T10:24:57;19.60;99.90
66013;DHT22;52783;50.502;8.190;2023-05-07T10:27:25;19.10;99.90
66013;DHT22;52783;50.502;8.190;2023-05-07T10:35:19;19.60;99.90
66013;DHT22;52783;50.502;8.190;2023-05-07T10:37:46;20.10;99.90
66013;DHT22;52783;50.502;8.190;2023-05-07T10:40:12;20.10;99.90
66013;DHT22;52783;50.502;8.190;2023-05-07T10:42:38;20.10;99.90
66013;DHT22;52783;50.502;8.190;2023-05-07T10:45:14;20.20;99.90
66013;DHT22;52783;50.502;8.190;2023-05-07T10:50:37;19.90;99.90
66013;DHT22;52783;50.502;8.190;2023-05-07T10:55:50;19.90;99.90
66013;DHT22;52783;50.502;8.190;2023-05-07T10:58:25;20.00;99.90
66013;DHT22;52783;50.502;8.190;2023-05-07T11:01:00;20.00;99.90
66013;DHT22;52783;50.502;8.190;2023-05-07T11:03:26;20.30;99.90
66013;DHT22;52783;50.502;8.190;2023-05-07T11:08:55;19.70;99.90
66013;DHT22;52783;50.502;8.190;2023-05-07T11:11:47;20.00;99.90
66013;DHT22;52783;50.502;8.190;2023-05-07T11:14:14;20.00;99.90
66013;DHT22;52783;50.502;8.190;2023-05-07T11:16:41;20.20;99.90
66013;DHT22;52783;50.502;8.190;2023-05-07T11:19:08;20.10;99.90
66013;DHT22;52783;50.502;8.190;2023-05-07T11:24:04;20.30;99.90
66013;DHT22;52783;50.502;8.190;2023-05-07T11:26:44;20.60;99.90
66013;DHT22;52783;50.502;8.190;2023-05-07T11:29:11;20.50;99.90
66013;DHT22;52783;50.502;8.190;2023-05-07T11:31:37;20.30;99.90
66013;DHT22;52783;50.502;8.190;2023-05-07T11:34:03;20.70;99.90
66013;DHT22;52783;50.502;8.190;2023-05-07T11:36:32;21.10;99.90
66013;DHT22;52783;50.502;8.190;2023-05-07T11:38:57;20.80;99.90
66013;DHT22;52783;50.502;8.190;2023-05-07T11:41:33;20.70;99.90
66013;DHT22;52783;50.502;8.190;2023-05-07T11:44:00;21.10;99.90
66013;DHT22;52783;50.502;8.190;2023-05-07T11:46:27;21.10;99.90
66013;DHT22;52783;50.502;8.190;2023-05-07T11:48:52;21.00;99.90
66013;DHT22;52783;50.502;8.190;2023-05-07T11:51:19;20.90;99.90
66013;DHT22;52783;50.502;8.190;2023-05-07T11:53:45;21.20;99.90
66013;DHT22;52783;50.502;8.190;2023-05-07T11:56:13;20.80;99.90
66013;DHT22;52783;50.502;8.190;2023-05-07T11:58:40;20.30;99.90
66013;DHT22;52783;50.502;8.190;2023-05-07T12:01:08;20.40;99.90
66013;DHT22;52783;50.502;8.190;2023-05-07T12:03:35;20.90;99.90
66013;DHT22;52783;50.502;8.190;2023-05-07T12:06:04;20.70;99.90
66013;DHT22;52783;50.502;8.190;2023-05-07T12:08:30;20.70;99.90
66013;DHT22;52783;50.502;8.190;2023-05-07T12:10:56;20.70;99.90
66013;DHT22;52783;50.502;8.190;2023-05-07T12:13:24;20.90;99.90
66013;DHT22;52783;50.502;8.190;2023-05-07T12:15:54;21.00;99.90
66013;DHT22;52783;50.502;8.190;2023-05-07T12:18:20;21.20;99.90
66013;DHT22;52783;50.502;8.190;2023-05-07T12:20:46;20.90;99.90
66013;DHT22;52783;50.502;8.190;2023-05-07T12:23:13;20.80;99.90
66013;DHT22;52783;50.502;8.190;2023-05-07T12:25:39;21.10;99.90
66013;DHT22;52783;50.502;8.190;2023-05-07T12:28:07;21.00;99.90
66013;DHT22;52783;50.502;8.190;2023-05-07T12:30:37;20.60;99.90
66013;DHT22;52783;50.502;8.190;2023-05-07T12:33:02;21.10;99.90
66013;DHT22;52783;50.502;8.190;2023-05-07T12:35:35;21.30;99.90
66013;DHT22;52783;50.502;8.190;2023-05-07T12:38:01;20.90;99.90
66013;DHT22;52783;50.502;8.190;2023-05-07T12:40:44;21.40;99.90
66013;DHT22;52783;50.502;8.190;2023-05-07T12:43:19;21.70;99.90
66013;DHT22;52783;50.502;8.190;2023-05-07T12:45:50;21.30;99.90
66013;DHT22;52783;50.502;8.190;2023-05-07T12:48:15;21.00;99.90
66013;DHT22;52783;50.502;8.190;2023-05-07T12:50:42;20.60;99.90
66013;DHT22;52783;50.502;8.190;2023-05-07T12:53:10;20.50;99.90
66013;DHT22;52783;50.502;8.190;2023-05-07T12:58:06;20.90;99.90
66013;DHT22;52783;50.502;8.190;2023-05-07T13:00:36;21.00;99.90
66013;DHT22;52783;50.502;8.190;2023-05-07T13:03:02;21.30;99.90
66013;DHT22;52783;50.502;8.190;2023-05-07T13:05:28;21.40;99.90
66013;DHT22;52783;50.502;8.190;2023-05-07T13:07:57;21.40;99.90
66013;DHT22;52783;50.502;8.190;2023-05-07T13:10:24;21.50;99.90
66013;DHT22;52783;50.502;8.190;2023-05-07T13:12:50;21.40;99.90
66013;DHT22;52783;50.502;8.190;2023-05-07T13:15:16;21.90;99.90
66013;DHT22;52783;50.502;8.190;2023-05-07T13:17:42;22.20;99.90
66013;DHT22;52783;50.502;8.190;2023-05-07T13:20:09;21.70;99.90
66013;DHT22;52783;50.502;8.190;2023-05-07T13:22:35;21.40;99.90
66013;DHT22;52783;50.502;8.190;2023-05-07T13:25:01;21.30;99.90
66013;DHT22;52783;50.502;8.190;2023-05-07T13:27:26;21.00;99.90
66013;DHT22;52783;50.502;8.190;2023-05-07T13:29:52;20.80;99.90
66013;DHT22;52783;50.502;8.190;2023-05-07T13:32:17;21.10;99.90
66013;DHT22;52783;50.502;8.190;2023-05-07T13:34:43;21.10;99.90
66013;DHT22;52783;50.502;8.190;2023-05-07T13:37:08;21.50;99.90
66013;DHT22;52783;50.502;8.190;2023-05-07T13:39:34;21.80;99.90
66013;DHT22;52783;50.502;8.190;2023-05-07T13:41:59;22.00;99.90
66013;DHT22;52783;50.502;8.190;2023-05-07T13:44:26;22.20;99.90
66013;DHT22;52783;50.502;8.190;2023-05-07T13:46:51;22.10;99.90
66013;DHT22;52783;50.502;8.190;2023-05-07T13:49:17;21.80;99.90
66013;DHT22;52783;50.502;8.190;2023-05-07T13:51:42;21.30;99.90
66013;DHT22;52783;50.502;8.190;2023-05-07T13:54:08;21.70;99.90
66013;DHT22;52783;50.502;8.190;2023-05-07T13:56:34;21.80;99.90
66013;DHT22;52783;50.502;8.190;2023-05-07T13:58:59;21.60;99.90
66013;DHT22;52783;50.502;8.190;2023-05-07T14:01:25;21.40;99.90
66013;DHT22;52783;50.502;8.190;2023-05-07T14:03:50;21.70;99.90
66013;DHT22;52783;50.502;8.190;2023-05-07T14:06:16;21.50;99.90
66013;DHT22;52783;50.502;8.190;2023-05-07T14:08:41;21.90;99.90
66013;DHT22;52783;50.502;8.190;2023-05-07T14:11:07;21.80;99.90
66013;DHT22;52783;50.502;8.190;2023-05-07T14:13:32;21.70;99.90
66013;DHT22;52783;50.502;8.190;2023-05-07T14:15:59;21.80;99.90
66013;DHT22;52783;50.502;8.190;2023-05-07T14:18:26;22.10;99.90
66013;DHT22;52783;50.502;8.190;2023-05-07T14:20:51;21.50;99.90
66013;DHT22;52783;50.502;8.190;2023-05-07T14:23:17;21.70;99.90
66013;DHT22;52783;50.502;8.190;2023-05-07T14:25:44;21.90;99.90
66013;DHT22;52783;50.502;8.190;2023-05-07T14:28:11;21.70;99.90
66013;DHT22;52783;50.502;8.190;2023-05-07T14:30:36;21.70;99.90
66013;DHT22;52783;50.502;8.190;2023-05-07T14:33:02;21.70;99.90
66013;DHT22;52783;50.502;8.190;2023-05-07T14:35:27;21.50;99.90
66013;DHT22;52783;50.502;8.190;2023-05-07T14:37:53;21.40;99.90
66013;DHT22;52783;50.502;8.190;2023-05-07T14:40:18;21.60;99.90
66013;DHT22;52783;50.502;8.190;2023-05-07T14:42:44;21.90;99.90
66013;DHT22;52783;50.502;8.190;2023-05-07T14:45:10;22.00;99.90
66013;DHT22;52783;50.502;8.190;2023-05-07T14:47:36;22.10;99.90
66013;DHT22;52783;50.502;8.190;2023-05-07T14:50:01;22.20;99.90
66013;DHT22;52783;50.502;8.190;2023-05-07T14:52:27;22.30;99.90
66013;DHT22;52783;50.502;8.190;2023-05-07T14:54:52;22.20;99.90
66013;DHT22;52783;50.502;8.190;2023-05-07T14:57:18;22.00;99.90
66013;DHT22;52783;50.502;8.190;2023-05-07T14:59:44;21.80;99.90
66013;DHT22;52783;50.502;8.190;2023-05-07T15:02:11;21.60;99.90
66013;DHT22;52783;50.502;8.190;2023-05-07T15:04:37;21.60;99.90
66013;DHT22;52783;50.502;8.190;2023-05-07T15:07:03;22.10;99.90
66013;DHT22;52783;50.502;8.190;2023-05-07T15:09:29;21.80;99.90
66013;DHT22;52783;50.502;8.190;2023-05-07T15:11:54;21.60;99.90
66013;DHT22;52783;50.502;8.190;2023-05-07T15:14:20;21.70;99.90
66013;DHT22;52783;50.502;8.190;2023-05-07T15:16:47;21.50;99.90
66013;DHT22;52783;50.502;8.190;2023-05-07T15:19:13;21.50;99.90
66013;DHT22;52783;50.502;8.190;2023-05-07T15:21:40;21.40;99.90
66013;DHT22;52783;50.502;8.190;2023-05-07T15:24:06;21.60;99.90
66013;DHT22;52783;50.502;8.190;2023-05-07T15:26:32;21.80;99.90
66013;DHT22;52783;50.502;8.190;2023-05-07T15:28:57;21.80;99.90
66013;DHT22;52783;50.502;8.190;2023-05-07T15:31:25;21.80;99.90
66013;DHT22;52783;50.502;8.190;2023-05-07T15:33:51;21.60;99.90
66013;DHT22;52783;50.502;8.190;2023-05-07T15:36:21;21.50;99.90
66013;DHT22;52783;50.502;8.190;2023-05-07T15:38:47;21.90;99.90
66013;DHT22;52783;50.502;8.190;2023-05-07T15:41:12;21.90;99.90
66013;DHT22;52783;50.502;8.190;2023-05-07T15:43:49;21.50;99.90